createdAt,value
2023-02-27T00:00:14.835Z,99523.38
2023-02-27T00:02:46.366Z,99526.66
2023-02-27T00:05:13.939Z,99530.66
2023-02-27T00:07:41.217Z,99525.84
2023-02-27T00:10:09.254Z,99535.50
2023-02-27T00:12:38.547Z,99541.66
2023-02-27T00:15:11.243Z,99548.88
2023-02-27T00:17:38.647Z,99540.00
2023-02-27T00:20:06.611Z,99550.41
2023-02-27T00:22:33.790Z,99544.22
2023-02-27T00:25:01.300Z,99552.13
2023-02-27T00:27:28.473Z,99556.56
2023-02-27T00:29:55.600Z,99548.25
2023-02-27T00:32:23.291Z,99562.56
2023-02-27T00:34:50.570Z,99569.88
2023-02-27T00:37:17.928Z,99572.22
2023-02-27T00:39:45.345Z,99567.34
2023-02-27T00:42:12.469Z,99573.75
2023-02-27T00:44:40.837Z,99576.06
2023-02-27T00:47:08.228Z,99584.72
2023-02-27T00:49:35.380Z,99577.72
2023-02-27T00:52:02.507Z,99583.19
2023-02-27T00:54:29.891Z,99580.66
2023-02-27T00:56:57.061Z,99591.41
2023-02-27T00:59:24.225Z,99581.56
2023-02-27T01:01:52.681Z,99585.28
2023-02-27T01:04:19.849Z,99594.47
2023-02-27T01:06:46.975Z,99598.69
2023-02-27T01:09:14.378Z,99601.03
2023-02-27T01:11:41.542Z,99600.62
2023-02-27T01:14:08.720Z,99603.34
2023-02-27T01:16:36.205Z,99597.84
2023-02-27T01:19:03.491Z,99604.87
2023-02-27T01:21:30.640Z,99601.25
2023-02-27T01:23:58.020Z,99606.66
2023-02-27T01:26:25.298Z,99603.34
2023-02-27T01:28:53.554Z,99600.81
2023-02-27T01:31:20.989Z,99598.16
2023-02-27T01:33:49.017Z,99600.75
2023-02-27T01:36:16.232Z,99610.25
2023-02-27T01:38:43.669Z,99600.94
2023-02-27T01:41:10.841Z,99598.59
2023-02-27T01:43:57.492Z,99599.34
2023-02-27T01:46:25.160Z,99610.53
2023-02-27T01:48:54.415Z,99613.84
2023-02-27T01:51:21.573Z,99607.56
2023-02-27T01:53:49.598Z,99615.91
2023-02-27T01:56:18.324Z,99615.03
2023-02-27T01:58:45.760Z,99614.94
2023-02-27T02:01:13.512Z,99615.03
2023-02-27T02:03:56.566Z,99619.09
2023-02-27T02:06:23.762Z,99625.41
2023-02-27T02:08:51.445Z,99624.66
2023-02-27T02:11:19.409Z,99633.22
2023-02-27T02:13:46.832Z,99638.84
2023-02-27T02:16:26.085Z,99642.81
2023-02-27T02:19:05.554Z,99638.75
2023-02-27T02:21:42.495Z,99655.19
2023-02-27T02:24:25.505Z,99660.63
2023-02-27T02:27:04.597Z,99663.97
2023-02-27T02:29:48.097Z,99665.44
2023-02-27T02:32:24.550Z,99657.09
2023-02-27T02:35:10.154Z,99657.31
2023-02-27T02:37:52.609Z,99663.59
2023-02-27T02:40:28.952Z,99666.09
2023-02-27T02:43:02.294Z,99674.94
2023-02-27T02:45:32.445Z,99664.34
2023-02-27T02:48:02.707Z,99668.28
2023-02-27T02:50:32.955Z,99665.25
2023-02-27T02:53:22.180Z,99668.31
2023-02-27T02:55:51.282Z,99676.31
2023-02-27T02:58:26.146Z,99677.94
2023-02-27T03:00:55.591Z,99677.38
2023-02-27T03:03:25.200Z,99684.09
2023-02-27T03:05:54.265Z,99690.44
2023-02-27T03:08:22.634Z,99677.09
2023-02-27T03:10:51.109Z,99690.88
2023-02-27T03:13:21.224Z,99691.13
2023-02-27T03:15:51.806Z,99691.72
2023-02-27T03:18:24.662Z,99694.47
2023-02-27T03:20:53.189Z,99697.50
2023-02-27T03:23:30.503Z,99702.28
2023-02-27T03:25:58.460Z,99694.28
2023-02-27T03:28:27.366Z,99702.00
2023-02-27T03:31:10.172Z,99705.50
2023-02-27T03:33:39.231Z,99704.53
2023-02-27T03:36:06.505Z,99705.81
2023-02-27T03:38:41.065Z,99711.81
2023-02-27T03:41:25.929Z,99712.88
2023-02-27T03:44:20.682Z,99716.41
2023-02-27T03:46:48.119Z,99724.72
2023-02-27T03:49:15.558Z,99721.41
2023-02-27T03:51:42.715Z,99728.69
2023-02-27T03:54:11.464Z,99730.50
2023-02-27T03:56:40.595Z,99723.66
2023-02-27T03:59:08.819Z,99728.16
2023-02-27T04:01:37.164Z,99728.56
2023-02-27T04:04:06.867Z,99727.16
2023-02-27T04:06:54.844Z,99730.59
2023-02-27T04:09:29.291Z,99735.91
2023-02-27T04:12:16.640Z,99724.63
2023-02-27T04:14:47.795Z,99731.12
2023-02-27T04:17:21.663Z,99728.69
2023-02-27T04:20:10.517Z,99727.81
2023-02-27T04:22:43.531Z,99731.66
2023-02-27T04:25:29.563Z,99733.25
2023-02-27T04:28:04.701Z,99745.03
2023-02-27T04:30:50.730Z,99738.06
2023-02-27T04:33:41.162Z,99742.56
2023-02-27T04:36:08.575Z,99743.31
2023-02-27T04:38:37.880Z,99745.03
2023-02-27T04:41:15.910Z,99741.28
2023-02-27T04:43:43.335Z,99747.59
2023-02-27T04:46:11.007Z,99748.75
2023-02-27T04:48:47.176Z,99746.84
2023-02-27T04:51:15.590Z,99759.44
2023-02-27T04:53:45.784Z,99756.03
2023-02-27T04:56:27.816Z,99755.72
2023-02-27T04:58:57.068Z,99761.69
2023-02-27T05:01:34.992Z,99753.03
2023-02-27T05:04:02.429Z,99758.38
2023-02-27T05:06:30.561Z,99755.41
2023-02-27T05:09:13.004Z,99760.81
2023-02-27T05:11:51.456Z,99758.72
2023-02-27T05:14:19.444Z,99774.38
2023-02-27T05:16:49.790Z,99779.22
2023-02-27T05:19:17.029Z,99785.84
2023-02-27T05:21:55.486Z,99783.91
2023-02-27T05:24:36.516Z,99791.72
2023-02-27T05:27:03.596Z,99793.88
2023-02-27T05:29:30.924Z,99793.31
2023-02-27T05:32:05.778Z,99791.94
2023-02-27T05:34:37.953Z,99802.84
2023-02-27T05:37:07.497Z,99799.84
2023-02-27T05:39:36.210Z,99806.00
2023-02-27T05:42:23.611Z,99806.47
2023-02-27T05:44:53.002Z,99813.50
2023-02-27T05:47:20.974Z,99808.19
2023-02-27T05:49:55.453Z,99819.75
2023-02-27T05:52:23.585Z,99812.56
2023-02-27T05:54:56.126Z,99813.09
2023-02-27T05:57:24.713Z,99820.25
2023-02-27T06:00:00.673Z,99834.03
2023-02-27T06:02:28.229Z,99835.53
2023-02-27T06:04:56.319Z,99833.09
2023-02-27T06:07:23.470Z,99844.31
2023-02-27T06:09:50.973Z,99842.91
2023-02-27T06:12:19.478Z,99847.56
2023-02-27T06:14:46.617Z,99852.91
2023-02-27T06:17:13.727Z,99852.25
2023-02-27T06:19:41.147Z,99864.16
2023-02-27T06:22:09.092Z,99864.03
2023-02-27T06:24:36.232Z,99867.47
2023-02-27T06:27:03.750Z,99870.34
2023-02-27T06:29:30.877Z,99873.69
2023-02-27T06:31:58.038Z,99885.91
2023-02-27T06:34:25.491Z,99886.97
2023-02-27T06:36:52.641Z,99903.00
2023-02-27T06:39:19.795Z,99906.22
2023-02-27T06:41:47.228Z,99913.72
2023-02-27T06:44:14.453Z,99913.50
2023-02-27T06:46:41.667Z,99915.75
2023-02-27T06:49:09.128Z,99919.91
2023-02-27T06:51:36.265Z,99926.00
2023-02-27T06:54:03.476Z,99916.13
2023-02-27T06:56:30.883Z,99931.03
2023-02-27T06:58:59.521Z,99935.31
2023-02-27T07:01:26.855Z,99936.16
2023-02-27T07:03:54.296Z,99940.56
2023-02-27T07:06:21.540Z,99934.28
2023-02-27T07:09:09.022Z,99937.59
2023-02-27T07:11:36.180Z,99933.94
2023-02-27T07:14:03.701Z,99938.44
2023-02-27T07:16:31.189Z,99950.31
2023-02-27T07:18:58.909Z,99954.50
2023-02-27T07:21:26.062Z,99951.41
2023-02-27T07:23:53.504Z,99946.00
2023-02-27T07:26:20.612Z,99947.84
2023-02-27T07:28:47.798Z,99951.19
2023-02-27T07:31:15.343Z,99950.63
2023-02-27T07:33:42.507Z,99953.09
2023-02-27T07:36:09.693Z,99958.47
2023-02-27T07:38:37.142Z,99952.12
2023-02-27T07:41:04.303Z,99957.72
2023-02-27T07:43:31.474Z,99956.69
2023-02-27T07:45:59.517Z,99961.75
2023-02-27T07:48:26.684Z,99970.63
2023-02-27T07:50:53.879Z,99959.69
2023-02-27T07:53:21.319Z,99970.16
2023-02-27T07:55:48.505Z,99962.72
2023-02-27T07:58:15.677Z,99957.00
2023-02-27T08:00:43.108Z,99967.34
2023-02-27T08:03:10.525Z,99971.66
2023-02-27T08:05:37.658Z,99968.63
2023-02-27T08:08:04.838Z,99977.53
2023-02-27T08:10:32.269Z,99984.34
2023-02-27T08:12:59.478Z,99992.00
2023-02-27T08:15:26.655Z,99996.16
2023-02-27T08:17:54.039Z,99995.00
2023-02-27T08:20:24.389Z,100007.03
2023-02-27T08:22:51.598Z,100007.00
2023-02-27T08:25:19.231Z,100005.75
2023-02-27T08:27:46.378Z,100008.88
2023-02-27T08:30:13.740Z,100006.94
2023-02-27T08:32:41.995Z,100010.28
2023-02-27T08:35:09.340Z,100017.94
2023-02-27T08:37:36.519Z,100022.50
2023-02-27T08:40:06.875Z,100024.38
2023-02-27T08:42:34.320Z,100028.66
2023-02-27T08:45:01.448Z,100020.72
2023-02-27T08:47:28.897Z,100026.75
2023-02-27T08:49:56.550Z,100023.19
2023-02-27T08:52:25.015Z,100020.31
2023-02-27T08:54:52.552Z,100024.59
2023-02-27T08:57:19.766Z,100027.13
2023-02-27T08:59:46.955Z,100030.00
2023-02-27T09:02:14.400Z,100039.12
2023-02-27T09:04:41.778Z,100034.81
2023-02-27T09:07:08.948Z,100038.38
2023-02-27T09:09:36.353Z,100047.63
2023-02-27T09:12:03.602Z,100047.69
2023-02-27T09:14:30.733Z,100046.75
2023-02-27T09:16:58.764Z,100053.13
2023-02-27T09:19:25.945Z,100055.41
2023-02-27T09:21:53.137Z,100054.72
2023-02-27T09:24:21.080Z,100058.00
2023-02-27T09:26:48.795Z,100058.13
2023-02-27T09:29:16.248Z,100063.94
2023-02-27T09:31:43.830Z,100064.91
2023-02-27T09:34:11.072Z,100059.09
2023-02-27T09:36:38.191Z,100063.81
2023-02-27T09:39:05.622Z,100068.00
2023-02-27T09:41:51.649Z,100061.78
2023-02-27T09:44:46.792Z,100062.72
2023-02-27T09:47:34.605Z,100070.13
2023-02-27T09:50:20.388Z,100072.09
2023-02-27T09:52:47.574Z,100076.28
2023-02-27T09:55:19.893Z,100074.25
2023-02-27T09:57:46.993Z,100074.47
2023-02-27T10:00:22.651Z,100082.34
2023-02-27T10:02:55.980Z,100078.84
2023-02-27T10:05:27.229Z,100078.16
2023-02-27T10:08:14.851Z,100077.09
2023-02-27T10:10:44.840Z,100082.84
2023-02-27T10:13:18.257Z,100072.94
2023-02-27T10:15:49.036Z,100082.62
2023-02-27T10:18:26.981Z,100080.84
2023-02-27T10:20:58.513Z,100082.94
2023-02-27T10:23:29.883Z,100084.28
2023-02-27T10:25:57.123Z,100080.75
2023-02-27T10:28:25.822Z,100085.31
2023-02-27T10:30:54.790Z,100084.69
2023-02-27T10:33:27.336Z,100080.87
2023-02-27T10:35:55.777Z,100072.62
2023-02-27T10:38:29.390Z,100079.03
2023-02-27T10:40:57.885Z,100085.44
2023-02-27T10:43:25.204Z,100077.94
2023-02-27T10:45:52.982Z,100075.50
2023-02-27T10:48:20.637Z,100077.06
2023-02-27T10:50:52.245Z,100069.72
2023-02-27T10:53:23.399Z,100077.63
2023-02-27T10:56:04.211Z,100076.50
2023-02-27T10:58:34.656Z,100073.22
2023-02-27T11:01:04.019Z,100074.59
2023-02-27T11:03:35.972Z,100071.19
2023-02-27T11:06:07.477Z,100073.50
2023-02-27T11:08:34.885Z,100079.28
2023-02-27T11:11:06.266Z,100073.81
2023-02-27T11:13:35.070Z,100072.62
2023-02-27T11:16:05.255Z,100074.47
2023-02-27T11:18:32.508Z,100083.22
2023-02-27T11:21:17.978Z,100082.88
2023-02-27T11:23:51.063Z,100076.84
2023-02-27T11:26:40.690Z,100078.44
2023-02-27T11:29:15.052Z,100080.59
2023-02-27T11:31:48.704Z,100086.28
2023-02-27T11:34:27.246Z,100080.38
2023-02-27T11:36:56.800Z,100083.59
2023-02-27T11:39:29.275Z,100088.81
2023-02-27T11:41:57.159Z,100080.56
2023-02-27T11:44:50.175Z,100085.09
2023-02-27T11:47:17.131Z,100085.75
2023-02-27T11:49:56.586Z,100080.56
2023-02-27T11:52:25.717Z,100085.72
2023-02-27T11:54:54.563Z,100075.41
2023-02-27T11:57:22.276Z,100069.12
2023-02-27T11:59:51.030Z,100073.00
2023-02-27T12:02:30.493Z,100065.88
2023-02-27T12:05:07.058Z,100062.84
2023-02-27T12:07:34.206Z,100062.16
2023-02-27T12:10:04.677Z,100065.75
2023-02-27T12:12:57.917Z,100056.97
2023-02-27T12:15:28.382Z,100051.19
2023-02-27T12:18:10.756Z,100060.56
2023-02-27T12:20:40.945Z,100062.91
2023-02-27T12:23:14.761Z,100070.87
2023-02-27T12:25:52.735Z,100069.66
2023-02-27T12:28:46.406Z,100070.69
2023-02-27T12:31:22.840Z,100076.06
2023-02-27T12:33:52.523Z,100086.88
2023-02-27T12:36:20.006Z,100087.91
2023-02-27T12:38:47.184Z,100090.25
2023-02-27T12:41:14.483Z,100089.97
2023-02-27T12:43:46.277Z,100099.03
2023-02-27T12:46:13.447Z,100085.28
2023-02-27T12:48:56.533Z,100090.81
2023-02-27T12:51:32.159Z,100091.41
2023-02-27T12:53:59.233Z,100090.78
2023-02-27T12:56:29.566Z,100093.84
2023-02-27T12:58:56.846Z,100091.22
2023-02-27T13:01:31.514Z,100094.41
2023-02-27T13:04:07.485Z,100095.78
2023-02-27T13:06:38.182Z,100101.94
2023-02-27T13:09:08.805Z,100094.87
2023-02-27T13:11:43.287Z,100105.13
2023-02-27T13:14:29.386Z,100105.47
2023-02-27T13:16:57.483Z,100106.94
2023-02-27T13:19:26.901Z,100100.59
2023-02-27T13:21:54.755Z,100105.88
2023-02-27T13:24:28.923Z,100105.44
2023-02-27T13:26:56.380Z,100106.19
2023-02-27T13:29:24.584Z,100114.00
2023-02-27T13:31:54.892Z,100115.34
2023-02-27T13:34:22.384Z,100111.66
2023-02-27T13:36:51.311Z,100120.34
2023-02-27T13:39:36.826Z,100109.78
2023-02-27T13:42:04.282Z,100113.06
2023-02-27T13:44:39.219Z,100113.47
2023-02-27T13:47:25.126Z,100119.31
2023-02-27T13:49:52.466Z,100113.53
2023-02-27T13:52:27.562Z,100105.44
2023-02-27T13:54:57.293Z,100115.53
2023-02-27T13:57:31.794Z,100114.87
2023-02-27T14:00:09.056Z,100116.47
2023-02-27T14:02:58.316Z,100111.41
2023-02-27T14:05:30.292Z,100113.59
2023-02-27T14:07:58.758Z,100109.94
2023-02-27T14:10:27.261Z,100112.31
2023-02-27T14:12:54.922Z,100110.31
2023-02-27T14:15:22.037Z,100110.38
2023-02-27T14:17:59.629Z,100106.78
2023-02-27T14:20:33.156Z,100108.94
2023-02-27T14:23:06.637Z,100109.81
2023-02-27T14:25:47.089Z,100108.09
2023-02-27T14:28:22.196Z,100115.06
2023-02-27T14:31:03.320Z,100110.41
2023-02-27T14:33:40.623Z,100116.50
2023-02-27T14:36:20.039Z,100121.47
2023-02-27T14:38:47.397Z,100110.00
2023-02-27T14:41:23.155Z,100114.44
2023-02-27T14:43:55.982Z,100122.28
2023-02-27T14:46:23.638Z,100124.56
2023-02-27T14:49:13.864Z,100121.69
2023-02-27T14:51:41.318Z,100126.00
2023-02-27T14:54:15.865Z,100127.44
2023-02-27T14:56:55.424Z,100135.75
2023-02-27T14:59:30.458Z,100129.28
2023-02-27T15:01:58.461Z,100120.12
2023-02-27T15:04:29.315Z,100130.00
2023-02-27T15:06:56.624Z,100136.13
2023-02-27T15:09:35.874Z,100135.87
2023-02-27T15:12:04.618Z,100139.41
2023-02-27T15:14:34.185Z,100147.00
2023-02-27T15:17:01.666Z,100144.38
2023-02-27T15:19:29.529Z,100148.16
2023-02-27T15:22:02.237Z,100153.97
2023-02-27T15:24:47.918Z,100157.88
2023-02-27T15:27:18.476Z,100172.53
2023-02-27T15:29:49.909Z,100174.12
2023-02-27T15:32:46.693Z,100177.34
2023-02-27T15:35:24.380Z,100174.22
2023-02-27T15:37:52.460Z,100179.53
2023-02-27T15:40:20.749Z,100188.41
2023-02-27T15:42:48.077Z,100189.94
2023-02-27T15:45:17.406Z,100187.94
2023-02-27T15:47:44.610Z,100189.91
2023-02-27T15:50:23.319Z,100203.97
2023-02-27T15:52:50.695Z,100202.41
2023-02-27T15:55:38.102Z,100202.94
2023-02-27T15:58:08.540Z,100201.53
2023-02-27T16:00:35.799Z,100211.84
2023-02-27T16:03:04.077Z,100216.25
2023-02-27T16:05:33.969Z,100213.31
2023-02-27T16:08:02.627Z,100212.72
2023-02-27T16:10:30.910Z,100213.44
2023-02-27T16:12:58.085Z,100221.34
2023-02-27T16:15:36.379Z,100222.88
2023-02-27T16:18:07.816Z,100224.22
2023-02-27T16:20:40.913Z,100228.19
2023-02-27T16:23:27.776Z,100229.97
2023-02-27T16:26:01.110Z,100236.38
2023-02-27T16:28:48.813Z,100236.06
2023-02-27T16:31:22.817Z,100238.38
2023-02-27T16:33:50.577Z,100245.97
2023-02-27T16:36:19.004Z,100251.47
2023-02-27T16:38:46.472Z,100251.91
2023-02-27T16:41:17.416Z,100261.25
2023-02-27T16:43:46.124Z,100262.84
2023-02-27T16:46:19.886Z,100265.84
2023-02-27T16:48:51.202Z,100267.34
2023-02-27T16:51:19.859Z,100271.59
2023-02-27T16:53:47.674Z,100275.91
2023-02-27T16:56:15.045Z,100285.78
2023-02-27T16:58:42.851Z,100286.44
2023-02-27T17:01:10.122Z,100289.88
2023-02-27T17:03:37.334Z,100292.13
2023-02-27T17:06:05.148Z,100296.53
2023-02-27T17:08:32.304Z,100301.13
2023-02-27T17:10:59.539Z,100299.62
2023-02-27T17:13:26.964Z,100306.81
2023-02-27T17:15:54.131Z,100303.38
2023-02-27T17:18:21.367Z,100310.47
2023-02-27T17:20:51.156Z,100310.69
2023-02-27T17:23:18.543Z,100303.28
2023-02-27T17:25:45.891Z,100315.50
2023-02-27T17:28:13.328Z,100320.94
2023-02-27T17:30:40.894Z,100326.09
2023-02-27T17:33:08.114Z,100334.69
2023-02-27T17:35:35.717Z,100326.66
2023-02-27T17:38:02.934Z,100328.91
2023-02-27T17:40:30.480Z,100329.44
2023-02-27T17:42:57.924Z,100324.41
2023-02-27T17:45:27.162Z,100327.50
2023-02-27T17:47:54.433Z,100326.44
2023-02-27T17:50:21.994Z,100333.62
2023-02-27T17:52:49.285Z,100338.22
2023-02-27T17:55:16.970Z,100347.12
2023-02-27T17:57:44.428Z,100345.28
2023-02-27T18:00:14.402Z,100344.34
2023-02-27T18:02:43.609Z,100351.91
2023-02-27T18:05:10.818Z,100351.56
2023-02-27T18:07:38.109Z,100358.75
2023-02-27T18:10:06.214Z,100355.53
2023-02-27T18:12:33.441Z,100362.00
2023-02-27T18:15:00.898Z,100359.78
2023-02-27T18:17:28.953Z,100355.78
2023-02-27T18:19:58.019Z,100369.63
2023-02-27T18:22:25.442Z,100367.84
2023-02-27T18:24:53.962Z,100366.34
2023-02-27T18:27:22.210Z,100366.53
2023-02-27T18:29:49.826Z,100365.97
2023-02-27T18:32:18.267Z,100372.87
2023-02-27T18:34:45.783Z,100365.00
2023-02-27T18:37:13.112Z,100369.50
2023-02-27T18:39:42.204Z,100363.91
2023-02-27T18:42:09.422Z,100375.28
2023-02-27T18:44:38.557Z,100372.25
2023-02-27T18:47:06.967Z,100381.06
2023-02-27T18:49:34.132Z,100378.56
2023-02-27T18:52:01.726Z,100379.25
2023-02-27T18:54:29.574Z,100395.66
2023-02-27T18:56:56.776Z,100416.59
2023-02-27T18:59:24.128Z,100426.75
2023-02-27T19:01:51.837Z,100426.75
2023-02-27T19:04:19.055Z,100433.19
2023-02-27T19:06:46.671Z,100441.41
2023-02-27T19:09:16.252Z,100439.72
2023-02-27T19:11:44.510Z,100445.91
2023-02-27T19:14:12.368Z,100446.94
2023-02-27T19:16:40.240Z,100461.56
2023-02-27T19:19:09.767Z,100471.84
2023-02-27T19:21:37.182Z,100477.09
2023-02-27T19:24:04.977Z,100484.53
2023-02-27T19:26:32.896Z,100477.56
2023-02-27T19:29:00.261Z,100477.78
2023-02-27T19:31:28.631Z,100472.31
2023-02-27T19:33:56.128Z,100479.59
2023-02-27T19:36:23.909Z,100476.78
2023-02-27T19:38:52.574Z,100479.91
2023-02-27T19:41:20.625Z,100478.03
2023-02-27T19:43:47.886Z,100465.44
2023-02-27T19:46:17.432Z,100463.25
2023-02-27T19:48:45.348Z,100462.12
2023-02-27T19:51:13.873Z,100467.16
2023-02-27T19:53:42.208Z,100470.06
2023-02-27T19:56:11.106Z,100475.88
2023-02-27T19:58:39.306Z,100485.72
2023-02-27T20:01:07.015Z,100503.91
2023-02-27T20:03:34.621Z,100517.12
2023-02-27T20:06:06.302Z,100512.56
2023-02-27T20:08:34.696Z,100522.75
2023-02-27T20:11:05.003Z,100529.44
2023-02-27T20:13:32.364Z,100531.84
2023-02-27T20:16:01.231Z,100523.84
2023-02-27T20:18:29.929Z,100517.66
2023-02-27T20:21:30.049Z,100524.22
2023-02-27T20:23:58.139Z,100521.06
2023-02-27T20:26:29.995Z,100526.75
2023-02-27T20:28:59.343Z,100530.12
2023-02-27T20:31:28.518Z,100524.16
2023-02-27T20:33:57.131Z,100521.13
2023-02-27T20:36:24.837Z,100530.81
2023-02-27T20:38:52.675Z,100535.75
2023-02-27T20:41:20.714Z,100531.09
2023-02-27T20:43:49.310Z,100546.47
2023-02-27T20:46:18.810Z,100544.66
2023-02-27T20:48:46.486Z,100549.13
2023-02-27T20:51:19.957Z,100544.25
2023-02-27T20:53:48.306Z,100547.59
2023-02-27T20:56:15.717Z,100542.78
2023-02-27T20:58:44.085Z,100548.38
2023-02-27T21:01:11.924Z,100556.75
2023-02-27T21:03:39.813Z,100552.09
2023-02-27T21:06:07.910Z,100555.78
2023-02-27T21:08:38.477Z,100560.94
2023-02-27T21:11:06.659Z,100552.06
2023-02-27T21:13:33.889Z,100562.22
2023-02-27T21:16:01.247Z,100566.66
2023-02-27T21:18:28.720Z,100575.03
2023-02-27T21:20:58.157Z,100573.44
2023-02-27T21:23:25.337Z,100573.97
2023-02-27T21:25:53.699Z,100575.13
2023-02-27T21:28:20.994Z,100581.16
2023-02-27T21:30:48.236Z,100571.50
2023-02-27T21:33:15.692Z,100564.81
2023-02-27T21:35:46.711Z,100582.94
2023-02-27T21:38:14.103Z,100578.56
2023-02-27T21:40:41.746Z,100584.75
2023-02-27T21:43:09.180Z,100569.91
2023-02-27T21:45:41.520Z,100579.63
2023-02-27T21:48:08.953Z,100582.44
2023-02-27T21:50:36.648Z,100579.91
2023-02-27T21:53:03.777Z,100576.66
2023-02-27T21:55:31.218Z,100576.69
2023-02-27T21:57:58.332Z,100579.50
2023-02-27T22:00:28.511Z,100565.69
2023-02-27T22:02:55.948Z,100563.34
2023-02-27T22:05:23.162Z,100570.66
2023-02-27T22:07:50.291Z,100572.00
2023-02-27T22:10:17.727Z,100568.63
2023-02-27T22:12:44.893Z,100566.16
2023-02-27T22:15:12.131Z,100566.03
2023-02-27T22:17:39.525Z,100557.06
2023-02-27T22:20:07.204Z,100557.66
2023-02-27T22:22:34.382Z,100570.94
2023-02-27T22:25:01.906Z,100557.94
2023-02-27T22:27:29.092Z,100558.56
2023-02-27T22:29:56.203Z,100563.97
2023-02-27T22:32:23.703Z,100563.97
2023-02-27T22:34:51.129Z,100558.66
2023-02-27T22:37:19.838Z,100566.31
2023-02-27T22:39:47.335Z,100565.84
2023-02-27T22:42:14.612Z,100564.62
2023-02-27T22:44:41.774Z,100571.41
2023-02-27T22:47:10.156Z,100573.22
2023-02-27T22:49:39.101Z,100570.97
2023-02-27T22:52:06.230Z,100579.19
2023-02-27T22:54:33.657Z,100567.34
2023-02-27T22:57:00.809Z,100556.34
2023-02-27T22:59:28.016Z,100558.50
2023-02-27T23:01:55.450Z,100574.78
2023-02-27T23:04:22.716Z,100569.19
2023-02-27T23:06:52.261Z,100572.81
2023-02-27T23:09:21.002Z,100577.62
2023-02-27T23:11:48.254Z,100568.03
2023-02-27T23:14:15.705Z,100569.78
2023-02-27T23:16:46.676Z,100565.03
2023-02-27T23:19:14.835Z,100568.94
2023-02-27T23:21:42.002Z,100566.47
2023-02-27T23:24:10.525Z,100569.69
2023-02-27T23:26:38.534Z,100565.47
2023-02-27T23:29:06.209Z,100569.88
2023-02-27T23:31:35.425Z,100579.37
2023-02-27T23:34:03.804Z,100587.03
2023-02-27T23:36:30.951Z,100578.00
2023-02-27T23:38:59.296Z,100576.31
2023-02-27T23:41:26.820Z,100576.59
2023-02-27T23:43:54.356Z,100573.66
2023-02-27T23:46:21.759Z,100584.38
2023-02-27T23:48:48.942Z,100588.88
2023-02-27T23:51:16.222Z,100584.03
2023-02-27T23:53:43.614Z,100594.03
2023-02-27T23:56:16.818Z,100594.59
2023-02-27T23:58:44.563Z,100606.34
